sensor_id;sensor_type;location;lat;lon;timestamp;P1;durP1;ratioP1;P2;durP2;ratioP2
48835;SDS011;62581;47.342;7.908;2022-12-20T00:01:05;16.73;;;10.63;;
48835;SDS011;62581;47.342;7.908;2022-12-20T00:03:32;16.83;;;10.27;;
48835;SDS011;62581;47.342;7.908;2022-12-20T00:05:59;17.08;;;10.57;;
48835;SDS011;62581;47.342;7.908;2022-12-20T00:08:26;15.90;;;9.98;;
48835;SDS011;62581;47.342;7.908;2022-12-20T00:10:53;17.58;;;11.23;;
48835;SDS011;62581;47.342;7.908;2022-12-20T00:13:20;18.83;;;10.73;;
48835;SDS011;62581;47.342;7.908;2022-12-20T00:15:49;18.98;;;11.13;;
48835;SDS011;62581;47.342;7.908;2022-12-20T00:18:16;17.85;;;10.77;;
48835;SDS011;62581;47.342;7.908;2022-12-20T00:20:43;18.67;;;10.55;;
48835;SDS011;62581;47.342;7.908;2022-12-20T00:23:10;18.50;;;10.48;;
48835;SDS011;62581;47.342;7.908;2022-12-20T00:25:37;18.45;;;11.20;;
48835;SDS011;62581;47.342;7.908;2022-12-20T00:28:04;17.25;;;10.90;;
48835;SDS011;62581;47.342;7.908;2022-12-20T00:30:31;18.30;;;10.73;;
48835;SDS011;62581;47.342;7.908;2022-12-20T00:32:59;19.33;;;11.05;;
48835;SDS011;62581;47.342;7.908;2022-12-20T00:35:26;15.45;;;10.75;;
48835;SDS011;62581;47.342;7.908;2022-12-20T00:37:53;16.83;;;10.98;;
48835;SDS011;62581;47.342;7.908;2022-12-20T00:40:20;17.00;;;10.95;;
48835;SDS011;62581;47.342;7.908;2022-12-20T00:42:47;16.80;;;11.75;;
48835;SDS011;62581;47.342;7.908;2022-12-20T00:45:14;18.55;;;11.30;;
48835;SDS011;62581;47.342;7.908;2022-12-20T00:47:41;19.38;;;11.25;;
48835;SDS011;62581;47.342;7.908;2022-12-20T00:50:09;20.45;;;10.90;;
48835;SDS011;62581;47.342;7.908;2022-12-20T00:52:37;18.10;;;10.88;;
48835;SDS011;62581;47.342;7.908;2022-12-20T00:55:04;17.52;;;10.10;;
48835;SDS011;62581;47.342;7.908;2022-12-20T00:57:32;20.35;;;11.02;;
48835;SDS011;62581;47.342;7.908;2022-12-20T00:59:58;17.33;;;10.38;;
48835;SDS011;62581;47.342;7.908;2022-12-20T01:02:25;14.65;;;9.95;;
48835;SDS011;62581;47.342;7.908;2022-12-20T01:04:52;18.25;;;10.55;;
48835;SDS011;62581;47.342;7.908;2022-12-20T01:07:21;20.45;;;10.80;;
48835;SDS011;62581;47.342;7.908;2022-12-20T01:09:48;17.75;;;10.40;;
48835;SDS011;62581;47.342;7.908;2022-12-20T01:12:15;16.52;;;10.95;;
48835;SDS011;62581;47.342;7.908;2022-12-20T01:14:43;18.48;;;11.68;;
48835;SDS011;62581;47.342;7.908;2022-12-20T01:17:10;16.23;;;10.10;;
48835;SDS011;62581;47.342;7.908;2022-12-20T01:19:37;19.85;;;10.95;;
48835;SDS011;62581;47.342;7.908;2022-12-20T01:22:05;17.10;;;10.52;;
48835;SDS011;62581;47.342;7.908;2022-12-20T01:24:33;13.27;;;9.43;;
48835;SDS011;62581;47.342;7.908;2022-12-20T01:27:00;16.98;;;10.68;;
48835;SDS011;62581;47.342;7.908;2022-12-20T01:29:27;15.27;;;10.25;;
48835;SDS011;62581;47.342;7.908;2022-12-20T01:31:54;17.23;;;10.57;;
48835;SDS011;62581;47.342;7.908;2022-12-20T01:34:21;17.35;;;10.52;;
48835;SDS011;62581;47.342;7.908;2022-12-20T01:36:48;17.95;;;11.32;;
48835;SDS011;62581;47.342;7.908;2022-12-20T01:39:15;15.18;;;10.55;;
48835;SDS011;62581;47.342;7.908;2022-12-20T01:41:44;18.83;;;11.17;;
48835;SDS011;62581;47.342;7.908;2022-12-20T01:47:17;16.00;;;10.18;;
48835;SDS011;62581;47.342;7.908;2022-12-20T01:49:45;15.18;;;9.70;;
48835;SDS011;62581;47.342;7.908;2022-12-20T01:52:15;16.35;;;9.98;;
48835;SDS011;62581;47.342;7.908;2022-12-20T01:54:46;16.05;;;10.48;;
48835;SDS011;62581;47.342;7.908;2022-12-20T01:57:19;16.23;;;10.13;;
48835;SDS011;62581;47.342;7.908;2022-12-20T01:59:50;19.13;;;10.68;;
48835;SDS011;62581;47.342;7.908;2022-12-20T02:02:19;15.93;;;9.98;;
48835;SDS011;62581;47.342;7.908;2022-12-20T02:04:46;19.63;;;10.55;;
48835;SDS011;62581;47.342;7.908;2022-12-20T02:07:14;17.70;;;10.05;;
48835;SDS011;62581;47.342;7.908;2022-12-20T02:09:45;17.38;;;10.23;;
48835;SDS011;62581;47.342;7.908;2022-12-20T02:12:13;18.73;;;10.37;;
48835;SDS011;62581;47.342;7.908;2022-12-20T02:14:45;18.60;;;10.27;;
48835;SDS011;62581;47.342;7.908;2022-12-20T02:17:26;16.77;;;10.48;;
48835;SDS011;62581;47.342;7.908;2022-12-20T02:23:32;18.55;;;10.20;;
48835;SDS011;62581;47.342;7.908;2022-12-20T02:26:14;17.80;;;10.00;;
48835;SDS011;62581;47.342;7.908;2022-12-20T02:28:58;17.10;;;10.10;;
48835;SDS011;62581;47.342;7.908;2022-12-20T02:31:39;18.40;;;10.05;;
48835;SDS011;62581;47.342;7.908;2022-12-20T02:34:12;18.40;;;10.65;;
48835;SDS011;62581;47.342;7.908;2022-12-20T02:36:40;23.25;;;10.65;;
48835;SDS011;62581;47.342;7.908;2022-12-20T02:39:08;17.08;;;10.70;;
48835;SDS011;62581;47.342;7.908;2022-12-20T02:41:40;15.85;;;9.88;;
48835;SDS011;62581;47.342;7.908;2022-12-20T02:44:13;15.63;;;10.52;;
48835;SDS011;62581;47.342;7.908;2022-12-20T02:47:00;17.42;;;10.38;;
48835;SDS011;62581;47.342;7.908;2022-12-20T02:49:31;18.30;;;10.65;;
48835;SDS011;62581;47.342;7.908;2022-12-20T02:52:02;16.55;;;10.10;;
48835;SDS011;62581;47.342;7.908;2022-12-20T02:54:32;16.58;;;9.52;;
48835;SDS011;62581;47.342;7.908;2022-12-20T02:57:01;16.48;;;10.30;;
48835;SDS011;62581;47.342;7.908;2022-12-20T02:59:33;16.02;;;10.38;;
48835;SDS011;62581;47.342;7.908;2022-12-20T03:02:06;15.82;;;9.82;;
48835;SDS011;62581;47.342;7.908;2022-12-20T03:04:34;16.75;;;10.80;;
48835;SDS011;62581;47.342;7.908;2022-12-20T03:07:05;16.67;;;10.52;;
48835;SDS011;62581;47.342;7.908;2022-12-20T03:09:35;16.42;;;10.68;;
48835;SDS011;62581;47.342;7.908;2022-12-20T03:12:04;17.10;;;10.43;;
48835;SDS011;62581;47.342;7.908;2022-12-20T03:14:31;16.70;;;11.00;;
48835;SDS011;62581;47.342;7.908;2022-12-20T03:16:58;15.40;;;10.02;;
48835;SDS011;62581;47.342;7.908;2022-12-20T03:19:26;16.95;;;9.77;;
48835;SDS011;62581;47.342;7.908;2022-12-20T03:21:53;17.48;;;10.75;;
48835;SDS011;62581;47.342;7.908;2022-12-20T03:24:20;16.10;;;10.35;;
48835;SDS011;62581;47.342;7.908;2022-12-20T03:26:47;15.60;;;10.15;;
48835;SDS011;62581;47.342;7.908;2022-12-20T03:29:14;13.27;;;9.18;;
48835;SDS011;62581;47.342;7.908;2022-12-20T03:31:41;12.95;;;9.35;;
48835;SDS011;62581;47.342;7.908;2022-12-20T03:34:08;11.85;;;8.65;;
48835;SDS011;62581;47.342;7.908;2022-12-20T03:36:36;15.18;;;9.85;;
48835;SDS011;62581;47.342;7.908;2022-12-20T03:39:03;15.07;;;9.32;;
48835;SDS011;62581;47.342;7.908;2022-12-20T03:41:30;13.98;;;9.30;;
48835;SDS011;62581;47.342;7.908;2022-12-20T03:43:57;16.65;;;9.38;;
48835;SDS011;62581;47.342;7.908;2022-12-20T03:46:24;15.95;;;9.48;;
48835;SDS011;62581;47.342;7.908;2022-12-20T03:48:51;14.73;;;9.70;;
48835;SDS011;62581;47.342;7.908;2022-12-20T03:51:18;13.82;;;8.85;;
48835;SDS011;62581;47.342;7.908;2022-12-20T03:53:47;14.23;;;9.25;;
48835;SDS011;62581;47.342;7.908;2022-12-20T03:56:14;14.73;;;8.95;;
48835;SDS011;62581;47.342;7.908;2022-12-20T03:58:41;15.32;;;9.52;;
48835;SDS011;62581;47.342;7.908;2022-12-20T04:01:18;14.65;;;9.43;;
48835;SDS011;62581;47.342;7.908;2022-12-20T04:03:46;14.50;;;9.07;;
48835;SDS011;62581;47.342;7.908;2022-12-20T04:06:13;13.13;;;8.40;;
48835;SDS011;62581;47.342;7.908;2022-12-20T04:08:40;12.93;;;9.25;;
48835;SDS011;62581;47.342;7.908;2022-12-20T04:11:09;12.70;;;8.68;;
48835;SDS011;62581;47.342;7.908;2022-12-20T04:13:42;14.45;;;9.55;;
48835;SDS011;62581;47.342;7.908;2022-12-20T04:16:09;13.52;;;8.95;;
48835;SDS011;62581;47.342;7.908;2022-12-20T04:18:36;14.93;;;9.38;;
48835;SDS011;62581;47.342;7.908;2022-12-20T04:21:04;14.90;;;9.13;;
48835;SDS011;62581;47.342;7.908;2022-12-20T04:23:32;13.27;;;9.07;;
48835;SDS011;62581;47.342;7.908;2022-12-20T04:26:01;18.00;;;8.55;;
48835;SDS011;62581;47.342;7.908;2022-12-20T04:28:30;19.38;;;10.10;;
48835;SDS011;62581;47.342;7.908;2022-12-20T04:30:58;14.73;;;9.35;;
48835;SDS011;62581;47.342;7.908;2022-12-20T04:33:26;17.23;;;9.45;;
48835;SDS011;62581;47.342;7.908;2022-12-20T04:35:54;16.77;;;9.45;;
48835;SDS011;62581;47.342;7.908;2022-12-20T04:38:21;16.27;;;9.25;;
48835;SDS011;62581;47.342;7.908;2022-12-20T04:40:49;14.20;;;8.73;;
48835;SDS011;62581;47.342;7.908;2022-12-20T04:43:16;14.85;;;9.18;;
48835;SDS011;62581;47.342;7.908;2022-12-20T04:45:47;13.48;;;8.93;;
48835;SDS011;62581;47.342;7.908;2022-12-20T04:48:16;13.85;;;9.38;;
48835;SDS011;62581;47.342;7.908;2022-12-20T04:50:46;12.90;;;9.05;;
48835;SDS011;62581;47.342;7.908;2022-12-20T04:53:14;12.98;;;8.30;;
48835;SDS011;62581;47.342;7.908;2022-12-20T04:55:58;15.70;;;9.00;;
48835;SDS011;62581;47.342;7.908;2022-12-20T04:58:25;12.77;;;8.70;;
48835;SDS011;62581;47.342;7.908;2022-12-20T05:00:53;14.35;;;9.00;;
48835;SDS011;62581;47.342;7.908;2022-12-20T05:03:20;13.48;;;8.43;;
48835;SDS011;62581;47.342;7.908;2022-12-20T05:05:49;13.25;;;8.55;;
48835;SDS011;62581;47.342;7.908;2022-12-20T05:08:16;13.80;;;9.13;;
48835;SDS011;62581;47.342;7.908;2022-12-20T05:10:43;13.35;;;8.48;;
48835;SDS011;62581;47.342;7.908;2022-12-20T05:13:10;15.40;;;9.73;;
48835;SDS011;62581;47.342;7.908;2022-12-20T05:15:37;14.73;;;9.93;;
48835;SDS011;62581;47.342;7.908;2022-12-20T05:18:05;15.13;;;9.23;;
48835;SDS011;62581;47.342;7.908;2022-12-20T05:20:32;16.52;;;9.43;;
48835;SDS011;62581;47.342;7.908;2022-12-20T05:22:59;14.15;;;9.48;;
48835;SDS011;62581;47.342;7.908;2022-12-20T05:25:44;12.60;;;8.40;;
48835;SDS011;62581;47.342;7.908;2022-12-20T05:28:30;13.85;;;9.45;;
48835;SDS011;62581;47.342;7.908;2022-12-20T05:30:57;18.23;;;9.43;;
48835;SDS011;62581;47.342;7.908;2022-12-20T05:33:25;14.75;;;9.45;;
48835;SDS011;62581;47.342;7.908;2022-12-20T05:35:53;16.27;;;10.13;;
48835;SDS011;62581;47.342;7.908;2022-12-20T05:38:20;19.00;;;10.50;;
48835;SDS011;62581;47.342;7.908;2022-12-20T05:40:48;14.50;;;9.60;;
48835;SDS011;62581;47.342;7.908;2022-12-20T05:43:16;15.27;;;10.63;;
48835;SDS011;62581;47.342;7.908;2022-12-20T05:45:44;16.48;;;10.68;;
48835;SDS011;62581;47.342;7.908;2022-12-20T05:48:12;13.60;;;9.52;;
48835;SDS011;62581;47.342;7.908;2022-12-20T05:50:41;12.90;;;8.80;;
48835;SDS011;62581;47.342;7.908;2022-12-20T05:53:10;15.07;;;9.10;;
48835;SDS011;62581;47.342;7.908;2022-12-20T05:55:38;12.45;;;8.15;;
48835;SDS011;62581;47.342;7.908;2022-12-20T05:58:09;19.30;;;10.27;;
48835;SDS011;62581;47.342;7.908;2022-12-20T06:00:38;16.83;;;9.90;;
48835;SDS011;62581;47.342;7.908;2022-12-20T06:03:05;13.52;;;9.43;;
48835;SDS011;62581;47.342;7.908;2022-12-20T06:05:35;16.25;;;9.63;;
48835;SDS011;62581;47.342;7.908;2022-12-20T06:08:05;15.23;;;9.55;;
48835;SDS011;62581;47.342;7.908;2022-12-20T06:10:34;16.92;;;10.30;;
48835;SDS011;62581;47.342;7.908;2022-12-20T06:13:01;20.60;;;9.50;;
48835;SDS011;62581;47.342;7.908;2022-12-20T06:15:29;15.18;;;9.07;;
48835;SDS011;62581;47.342;7.908;2022-12-20T06:17:56;14.25;;;9.52;;
48835;SDS011;62581;47.342;7.908;2022-12-20T06:20:23;14.95;;;9.68;;
48835;SDS011;62581;47.342;7.908;2022-12-20T06:22:50;15.45;;;10.30;;
48835;SDS011;62581;47.342;7.908;2022-12-20T06:25:19;15.82;;;10.05;;
48835;SDS011;62581;47.342;7.908;2022-12-20T06:27:46;17.08;;;9.30;;
48835;SDS011;62581;47.342;7.908;2022-12-20T06:30:14;19.25;;;9.45;;
48835;SDS011;62581;47.342;7.908;2022-12-20T06:32:41;14.82;;;8.70;;
48835;SDS011;62581;47.342;7.908;2022-12-20T06:35:10;14.45;;;9.20;;
48835;SDS011;62581;47.342;7.908;2022-12-20T06:37:38;18.73;;;9.82;;
48835;SDS011;62581;47.342;7.908;2022-12-20T06:40:06;18.75;;;10.10;;
48835;SDS011;62581;47.342;7.908;2022-12-20T06:42:35;14.70;;;9.35;;
48835;SDS011;62581;47.342;7.908;2022-12-20T06:45:02;13.90;;;8.45;;
48835;SDS011;62581;47.342;7.908;2022-12-20T06:47:30;11.70;;;6.93;;
48835;SDS011;62581;47.342;7.908;2022-12-20T06:49:57;11.20;;;7.07;;
48835;SDS011;62581;47.342;7.908;2022-12-20T06:52:24;14.60;;;8.98;;
48835;SDS011;62581;47.342;7.908;2022-12-20T06:54:51;17.92;;;9.30;;
48835;SDS011;62581;47.342;7.908;2022-12-20T06:57:18;16.13;;;9.45;;
48835;SDS011;62581;47.342;7.908;2022-12-20T06:59:46;11.13;;;8.02;;
48835;SDS011;62581;47.342;7.908;2022-12-20T07:02:13;11.90;;;8.07;;
48835;SDS011;62581;47.342;7.908;2022-12-20T07:04:40;13.95;;;7.88;;
48835;SDS011;62581;47.342;7.908;2022-12-20T07:07:07;19.42;;;8.75;;
48835;SDS011;62581;47.342;7.908;2022-12-20T07:09:34;14.57;;;8.93;;
48835;SDS011;62581;47.342;7.908;2022-12-20T07:12:02;15.18;;;8.82;;
48835;SDS011;62581;47.342;7.908;2022-12-20T07:14:29;11.70;;;8.23;;
48835;SDS011;62581;47.342;7.908;2022-12-20T07:16:57;13.35;;;8.43;;
48835;SDS011;62581;47.342;7.908;2022-12-20T07:19:24;12.63;;;8.45;;
48835;SDS011;62581;47.342;7.908;2022-12-20T07:21:51;14.13;;;8.57;;
48835;SDS011;62581;47.342;7.908;2022-12-20T07:24:18;15.10;;;9.65;;
48835;SDS011;62581;47.342;7.908;2022-12-20T07:26:45;17.02;;;8.75;;
48835;SDS011;62581;47.342;7.908;2022-12-20T07:29:12;13.05;;;8.52;;
48835;SDS011;62581;47.342;7.908;2022-12-20T07:31:39;16.08;;;8.95;;
48835;SDS011;62581;47.342;7.908;2022-12-20T07:34:08;13.65;;;10.02;;
48835;SDS011;62581;47.342;7.908;2022-12-20T07:36:35;19.58;;;10.77;;
48835;SDS011;62581;47.342;7.908;2022-12-20T07:39:02;16.90;;;9.70;;
48835;SDS011;62581;47.342;7.908;2022-12-20T07:41:29;16.10;;;9.55;;
48835;SDS011;62581;47.342;7.908;2022-12-20T07:43:57;15.57;;;9.82;;
48835;SDS011;62581;47.342;7.908;2022-12-20T07:46:24;17.15;;;9.65;;
48835;SDS011;62581;47.342;7.908;2022-12-20T07:48:52;16.98;;;10.43;;
48835;SDS011;62581;47.342;7.908;2022-12-20T07:51:22;15.15;;;9.40;;
48835;SDS011;62581;47.342;7.908;2022-12-20T07:53:51;13.70;;;8.75;;
48835;SDS011;62581;47.342;7.908;2022-12-20T07:56:19;13.05;;;8.93;;
48835;SDS011;62581;47.342;7.908;2022-12-20T07:58:47;10.65;;;7.50;;
48835;SDS011;62581;47.342;7.908;2022-12-20T08:01:17;13.75;;;8.05;;
48835;SDS011;62581;47.342;7.908;2022-12-20T08:03:46;13.15;;;9.02;;
48835;SDS011;62581;47.342;7.908;2022-12-20T08:06:16;13.52;;;8.63;;
48835;SDS011;62581;47.342;7.908;2022-12-20T08:08:46;15.20;;;10.05;;
48835;SDS011;62581;47.342;7.908;2022-12-20T08:11:18;13.60;;;8.70;;
48835;SDS011;62581;47.342;7.908;2022-12-20T08:13:49;14.27;;;9.15;;
48835;SDS011;62581;47.342;7.908;2022-12-20T08:16:17;11.45;;;8.60;;
48835;SDS011;62581;47.342;7.908;2022-12-20T08:18:44;13.88;;;9.35;;
48835;SDS011;62581;47.342;7.908;2022-12-20T08:21:11;11.20;;;7.53;;
48835;SDS011;62581;47.342;7.908;2022-12-20T08:23:38;18.42;;;8.45;;
48835;SDS011;62581;47.342;7.908;2022-12-20T08:26:07;12.02;;;7.47;;
48835;SDS011;62581;47.342;7.908;2022-12-20T08:28:34;13.82;;;7.68;;
48835;SDS011;62581;47.342;7.908;2022-12-20T08:31:01;13.68;;;7.57;;
48835;SDS011;62581;47.342;7.908;2022-12-20T08:33:31;10.93;;;6.90;;
48835;SDS011;62581;47.342;7.908;2022-12-20T08:35:59;9.70;;;6.22;;
48835;SDS011;62581;47.342;7.908;2022-12-20T08:38:27;10.73;;;6.75;;
48835;SDS011;62581;47.342;7.908;2022-12-20T08:41:00;12.45;;;7.13;;
48835;SDS011;62581;47.342;7.908;2022-12-20T08:43:29;11.07;;;7.20;;
48835;SDS011;62581;47.342;7.908;2022-12-20T08:48:23;11.05;;;6.57;;
48835;SDS011;62581;47.342;7.908;2022-12-20T08:50:53;10.95;;;7.28;;
48835;SDS011;62581;47.342;7.908;2022-12-20T08:53:21;10.00;;;6.78;;
48835;SDS011;62581;47.342;7.908;2022-12-20T08:55:48;10.23;;;6.50;;
48835;SDS011;62581;47.342;7.908;2022-12-20T08:58:16;9.45;;;6.13;;
48835;SDS011;62581;47.342;7.908;2022-12-20T09:00:44;9.63;;;6.50;;
48835;SDS011;62581;47.342;7.908;2022-12-20T09:03:12;8.85;;;6.47;;
48835;SDS011;62581;47.342;7.908;2022-12-20T09:05:42;11.65;;;6.63;;
48835;SDS011;62581;47.342;7.908;2022-12-20T09:08:11;10.05;;;6.90;;
48835;SDS011;62581;47.342;7.908;2022-12-20T09:10:38;8.73;;;6.53;;
48835;SDS011;62581;47.342;7.908;2022-12-20T09:13:05;12.85;;;7.15;;
48835;SDS011;62581;47.342;7.908;2022-12-20T09:15:32;9.48;;;6.93;;
48835;SDS011;62581;47.342;7.908;2022-12-20T09:18:03;12.10;;;6.38;;
48835;SDS011;62581;47.342;7.908;2022-12-20T09:20:31;14.27;;;7.57;;
48835;SDS011;62581;47.342;7.908;2022-12-20T09:22:58;14.75;;;7.55;;
48835;SDS011;62581;47.342;7.908;2022-12-20T09:25:25;16.63;;;7.97;;
48835;SDS011;62581;47.342;7.908;2022-12-20T09:27:53;12.73;;;7.35;;
48835;SDS011;62581;47.342;7.908;2022-12-20T09:30:21;12.13;;;6.20;;
48835;SDS011;62581;47.342;7.908;2022-12-20T09:32:48;13.32;;;6.55;;
48835;SDS011;62581;47.342;7.908;2022-12-20T09:35:17;13.30;;;7.10;;
48835;SDS011;62581;47.342;7.908;2022-12-20T09:37:44;10.60;;;7.22;;
48835;SDS011;62581;47.342;7.908;2022-12-20T09:40:13;11.95;;;6.82;;
48835;SDS011;62581;47.342;7.908;2022-12-20T09:42:45;11.73;;;7.07;;
48835;SDS011;62581;47.342;7.908;2022-12-20T09:45:16;12.30;;;6.95;;
48835;SDS011;62581;47.342;7.908;2022-12-20T09:47:48;10.55;;;6.93;;
48835;SDS011;62581;47.342;7.908;2022-12-20T09:50:18;12.23;;;6.90;;
48835;SDS011;62581;47.342;7.908;2022-12-20T09:52:50;11.60;;;7.57;;
48835;SDS011;62581;47.342;7.908;2022-12-20T09:55:30;10.00;;;6.38;;
48835;SDS011;62581;47.342;7.908;2022-12-20T09:58:04;10.10;;;6.00;;
48835;SDS011;62581;47.342;7.908;2022-12-20T10:00:52;10.15;;;5.55;;
48835;SDS011;62581;47.342;7.908;2022-12-20T10:03:20;9.95;;;5.70;;
48835;SDS011;62581;47.342;7.908;2022-12-20T10:05:51;10.73;;;6.30;;
48835;SDS011;62581;47.342;7.908;2022-12-20T10:08:24;10.40;;;5.70;;
48835;SDS011;62581;47.342;7.908;2022-12-20T10:11:07;8.13;;;5.70;;
48835;SDS011;62581;47.342;7.908;2022-12-20T10:13:45;10.52;;;6.50;;
48835;SDS011;62581;47.342;7.908;2022-12-20T10:16:28;11.52;;;6.82;;
48835;SDS011;62581;47.342;7.908;2022-12-20T10:19:05;9.00;;;6.47;;
48835;SDS011;62581;47.342;7.908;2022-12-20T10:21:45;13.50;;;5.97;;
48835;SDS011;62581;47.342;7.908;2022-12-20T10:24:18;10.20;;;6.68;;
48835;SDS011;62581;47.342;7.908;2022-12-20T10:26:50;8.48;;;5.55;;
48835;SDS011;62581;47.342;7.908;2022-12-20T10:29:17;8.65;;;5.40;;
48835;SDS011;62581;47.342;7.908;2022-12-20T10:31:46;8.90;;;5.70;;
48835;SDS011;62581;47.342;7.908;2022-12-20T10:36:41;8.63;;;5.20;;
48835;SDS011;62581;47.342;7.908;2022-12-20T10:39:10;10.15;;;5.95;;
48835;SDS011;62581;47.342;7.908;2022-12-20T10:41:45;7.72;;;5.53;;
48835;SDS011;62581;47.342;7.908;2022-12-20T10:44:15;9.55;;;5.15;;
48835;SDS011;62581;47.342;7.908;2022-12-20T10:46:45;9.50;;;5.97;;
48835;SDS011;62581;47.342;7.908;2022-12-20T10:52:01;8.45;;;5.35;;
48835;SDS011;62581;47.342;7.908;2022-12-20T10:54:30;8.00;;;5.30;;
48835;SDS011;62581;47.342;7.908;2022-12-20T10:57:00;10.93;;;5.38;;
48835;SDS011;62581;47.342;7.908;2022-12-20T10:59:30;9.90;;;5.68;;
48835;SDS011;62581;47.342;7.908;2022-12-20T11:02:00;9.70;;;6.07;;
48835;SDS011;62581;47.342;7.908;2022-12-20T11:06:56;8.18;;;4.70;;
48835;SDS011;62581;47.342;7.908;2022-12-20T11:09:27;11.18;;;5.20;;
48835;SDS011;62581;47.342;7.908;2022-12-20T11:11:56;11.85;;;5.97;;
48835;SDS011;62581;47.342;7.908;2022-12-20T11:14:24;8.98;;;5.53;;
48835;SDS011;62581;47.342;7.908;2022-12-20T11:16:52;8.98;;;5.63;;
48835;SDS011;62581;47.342;7.908;2022-12-20T11:22:19;6.18;;;4.80;;
48835;SDS011;62581;47.342;7.908;2022-12-20T11:24:59;11.10;;;5.90;;
48835;SDS011;62581;47.342;7.908;2022-12-20T11:27:42;8.43;;;5.20;;
48835;SDS011;62581;47.342;7.908;2022-12-20T11:33:01;7.72;;;4.82;;
48835;SDS011;62581;47.342;7.908;2022-12-20T11:35:49;8.00;;;4.85;;
48835;SDS011;62581;47.342;7.908;2022-12-20T11:38:24;7.65;;;5.13;;
48835;SDS011;62581;47.342;7.908;2022-12-20T11:41:04;9.43;;;5.22;;
48835;SDS011;62581;47.342;7.908;2022-12-20T11:43:46;10.07;;;5.30;;
48835;SDS011;62581;47.342;7.908;2022-12-20T11:46:25;8.68;;;5.30;;
48835;SDS011;62581;47.342;7.908;2022-12-20T11:49:02;12.65;;;5.20;;
48835;SDS011;62581;47.342;7.908;2022-12-20T11:51:44;8.85;;;5.03;;
48835;SDS011;62581;47.342;7.908;2022-12-20T11:54:14;13.43;;;5.05;;
48835;SDS011;62581;47.342;7.908;2022-12-20T11:56:49;8.68;;;4.78;;
48835;SDS011;62581;47.342;7.908;2022-12-20T11:59:21;9.43;;;5.22;;
48835;SDS011;62581;47.342;7.908;2022-12-20T12:02:01;6.43;;;5.03;;
48835;SDS011;62581;47.342;7.908;2022-12-20T12:04:36;8.85;;;4.85;;
48835;SDS011;62581;47.342;7.908;2022-12-20T12:07:09;6.47;;;4.18;;
48835;SDS011;62581;47.342;7.908;2022-12-20T12:09:43;12.82;;;4.32;;
48835;SDS011;62581;47.342;7.908;2022-12-20T12:12:18;11.07;;;4.50;;
48835;SDS011;62581;47.342;7.908;2022-12-20T12:14:54;7.95;;;4.03;;
48835;SDS011;62581;47.342;7.908;2022-12-20T12:17:27;8.93;;;4.45;;
48835;SDS011;62581;47.342;7.908;2022-12-20T12:20:03;11.23;;;4.72;;
48835;SDS011;62581;47.342;7.908;2022-12-20T12:22:45;9.10;;;5.03;;
48835;SDS011;62581;47.342;7.908;2022-12-20T12:25:16;9.73;;;5.13;;
48835;SDS011;62581;47.342;7.908;2022-12-20T12:27:47;6.60;;;4.03;;
48835;SDS011;62581;47.342;7.908;2022-12-20T12:30:15;10.10;;;4.70;;
48835;SDS011;62581;47.342;7.908;2022-12-20T12:32:43;6.95;;;4.05;;
48835;SDS011;62581;47.342;7.908;2022-12-20T12:41:18;9.40;;;4.82;;
48835;SDS011;62581;47.342;7.908;2022-12-20T12:44:19;7.13;;;3.88;;
48835;SDS011;62581;47.342;7.908;2022-12-20T12:46:59;12.35;;;4.32;;
48835;SDS011;62581;47.342;7.908;2022-12-20T12:49:30;7.68;;;4.38;;
48835;SDS011;62581;47.342;7.908;2022-12-20T12:51:59;6.20;;;4.22;;
48835;SDS011;62581;47.342;7.908;2022-12-20T12:54:33;9.95;;;4.38;;
48835;SDS011;62581;47.342;7.908;2022-12-20T12:57:05;7.43;;;3.97;;
48835;SDS011;62581;47.342;7.908;2022-12-20T12:59:43;8.18;;;4.50;;
48835;SDS011;62581;47.342;7.908;2022-12-20T13:02:22;12.05;;;4.90;;
48835;SDS011;62581;47.342;7.908;2022-12-20T13:04:59;7.47;;;4.43;;
48835;SDS011;62581;47.342;7.908;2022-12-20T13:07:46;7.93;;;4.65;;
48835;SDS011;62581;47.342;7.908;2022-12-20T13:13:22;9.88;;;4.72;;
48835;SDS011;62581;47.342;7.908;2022-12-20T13:18:56;11.07;;;5.43;;
48835;SDS011;62581;47.342;7.908;2022-12-20T13:21:36;8.43;;;4.57;;
48835;SDS011;62581;47.342;7.908;2022-12-20T13:27:21;7.68;;;4.35;;
48835;SDS011;62581;47.342;7.908;2022-12-20T13:33:01;7.63;;;4.32;;
48835;SDS011;62581;47.342;7.908;2022-12-20T13:35:56;7.22;;;3.83;;
48835;SDS011;62581;47.342;7.908;2022-12-20T13:38:36;9.13;;;4.00;;
48835;SDS011;62581;47.342;7.908;2022-12-20T13:41:18;4.00;;;3.00;;
48835;SDS011;62581;47.342;7.908;2022-12-20T13:46:21;5.30;;;3.25;;
48835;SDS011;62581;47.342;7.908;2022-12-20T13:48:54;7.35;;;4.22;;
48835;SDS011;62581;47.342;7.908;2022-12-20T13:51:25;9.82;;;4.43;;
48835;SDS011;62581;47.342;7.908;2022-12-20T13:53:53;4.70;;;3.58;;
48835;SDS011;62581;47.342;7.908;2022-12-20T13:59:13;9.00;;;3.35;;
48835;SDS011;62581;47.342;7.908;2022-12-20T14:01:47;6.50;;;3.67;;
48835;SDS011;62581;47.342;7.908;2022-12-20T14:04:18;5.47;;;3.28;;
48835;SDS011;62581;47.342;7.908;2022-12-20T14:06:49;8.90;;;3.85;;
48835;SDS011;62581;47.342;7.908;2022-12-20T14:09:29;4.40;;;3.33;;
48835;SDS011;62581;47.342;7.908;2022-12-20T14:12:10;6.22;;;3.50;;
48835;SDS011;62581;47.342;7.908;2022-12-20T14:14:42;11.63;;;4.15;;
48835;SDS011;62581;47.342;7.908;2022-12-20T14:17:16;4.28;;;3.50;;
48835;SDS011;62581;47.342;7.908;2022-12-20T14:20:01;6.45;;;3.60;;
48835;SDS011;62581;47.342;7.908;2022-12-20T14:22:30;5.60;;;3.45;;
48835;SDS011;62581;47.342;7.908;2022-12-20T14:24:58;9.75;;;4.35;;
48835;SDS011;62581;47.342;7.908;2022-12-20T14:27:26;4.38;;;3.63;;
48835;SDS011;62581;47.342;7.908;2022-12-20T14:29:58;7.63;;;4.03;;
48835;SDS011;62581;47.342;7.908;2022-12-20T14:32:25;9.27;;;4.00;;
48835;SDS011;62581;47.342;7.908;2022-12-20T14:34:53;4.72;;;3.42;;
48835;SDS011;62581;47.342;7.908;2022-12-20T14:37:27;6.55;;;3.80;;
48835;SDS011;62581;47.342;7.908;2022-12-20T14:40:00;6.07;;;3.25;;
48835;SDS011;62581;47.342;7.908;2022-12-20T14:42:31;6.38;;;3.83;;
48835;SDS011;62581;47.342;7.908;2022-12-20T14:45:04;8.07;;;4.28;;
48835;SDS011;62581;47.342;7.908;2022-12-20T14:47:46;9.85;;;3.83;;
48835;SDS011;62581;47.342;7.908;2022-12-20T14:50:16;5.40;;;3.58;;
48835;SDS011;62581;47.342;7.908;2022-12-20T14:52:47;6.28;;;3.63;;
48835;SDS011;62581;47.342;7.908;2022-12-20T14:55:15;6.13;;;3.97;;
48835;SDS011;62581;47.342;7.908;2022-12-20T14:57:44;7.18;;;4.28;;
48835;SDS011;62581;47.342;7.908;2022-12-20T15:00:14;6.78;;;3.83;;
48835;SDS011;62581;47.342;7.908;2022-12-20T15:02:49;7.50;;;3.78;;
48835;SDS011;62581;47.342;7.908;2022-12-20T15:08:23;7.32;;;3.97;;
48835;SDS011;62581;47.342;7.908;2022-12-20T15:10:54;7.28;;;4.18;;
48835;SDS011;62581;47.342;7.908;2022-12-20T15:13:24;6.63;;;4.13;;
48835;SDS011;62581;47.342;7.908;2022-12-20T15:15:54;10.10;;;4.30;;
48835;SDS011;62581;47.342;7.908;2022-12-20T15:18:23;6.32;;;3.90;;
48835;SDS011;62581;47.342;7.908;2022-12-20T15:20:53;6.32;;;4.25;;
48835;SDS011;62581;47.342;7.908;2022-12-20T15:23:27;9.65;;;4.22;;
48835;SDS011;62581;47.342;7.908;2022-12-20T15:25:55;9.75;;;4.10;;
48835;SDS011;62581;47.342;7.908;2022-12-20T15:28:23;7.32;;;3.95;;
48835;SDS011;62581;47.342;7.908;2022-12-20T15:30:51;8.57;;;3.85;;
48835;SDS011;62581;47.342;7.908;2022-12-20T15:33:20;7.85;;;3.80;;
48835;SDS011;62581;47.342;7.908;2022-12-20T15:35:48;6.60;;;4.45;;
48835;SDS011;62581;47.342;7.908;2022-12-20T15:38:17;8.32;;;4.53;;
48835;SDS011;62581;47.342;7.908;2022-12-20T15:40:47;6.07;;;4.30;;
48835;SDS011;62581;47.342;7.908;2022-12-20T15:43:18;7.18;;;4.30;;